Sunset Colony, South Dakota
Current Conditions -  °F | °C
As of 10:15 AM on Saturday 25 Oct 2014 (Local Time) from KGWR Reporting Station
Scattered Clouds Scattered Clouds  
Wind Chill: 52°   Ceiling: Unl
Heat Index: 52°   Visibility: 10mi
Dew Point: 32°   Wind: 9mph
Humidity: 47%   Direction: 300°WNW
Pressure: 30.15"   Gusts: NA
Location:  45.8144°N, 97.7089°W
Report Text: KGWR 251515Z AUTO 30008KT 10SM SCT110 11/00 A3015 RMK A01 P000
Loading
Personal Weather Stations






























Interactive Weather Map New forecast layout! Learn more

10-Day Weather Forecast

Advertisements
Track Severe Weather on mobile